Hakuseimaru No.11 — JD2069 — position and weather

sailwx.info

Track history (hours):
 
Tides and Currents Weather Stations Pressure Air Temp Water Temp Dewpoint Dewpoint Depression Visibility Wind Speed Wind Dir Waves Ship Positions

Hakuseimaru No.11

Last reported at 2017-Oct-20 17:30 UTC. Time now 2017-Oct-20 17:53 UTC.
Position N 35°23' E 139°40'.

Length 62 m; draft 3.5 m.

Type: Tanker. MMSI: 431501815.

Date/timePositionNaut miles runAvg speedWind from/ knotsBaromVisibWave heightAir tempDewpointWater temp
2017-Oct-20 17:30N 35°23' E 139°40'0 0.0
2017-Oct-20 17:00N 35°23' E 139°40'0 0.0
2017-Oct-20 16:30N 35°23' E 139°40'0 0.0
2017-Oct-20 16:00N 35°23' E 139°40'0 0.1
2017-Oct-20 15:30N 35°23' E 139°40'0 0.0
2017-Oct-20 15:00N 35°23' E 139°40'0 0.0
2017-Oct-20 14:30N 35°23' E 139°40'0 0.0
2017-Oct-20 13:30N 35°23' E 139°40'0 0.0
2017-Oct-20 13:00N 35°23' E 139°40'0 0.1
2017-Oct-20 12:30N 35°23' E 139°40'0 0.1
2017-Oct-20 12:00N 35°23' E 139°40'0 0.1
2017-Oct-20 11:30N 35°23' E 139°40'0 0.0
2017-Oct-20 11:00N 35°23' E 139°40'0 0.0
2017-Oct-20 10:30N 35°23' E 139°40'0 0.0
2017-Oct-20 10:00N 35°23' E 139°40'0 0.0
2017-Oct-20 09:27N 35°23' E 139°40'0 0.0
2017-Oct-20 09:00N 35°23' E 139°40'0 0.0
2017-Oct-20 08:27N 35°23' E 139°40'0 0.0
2017-Oct-20 07:57N 35°23' E 139°40'0 0.0
2017-Oct-20 07:30N 35°23' E 139°40'0 0.0
2017-Oct-20 07:00N 35°23' E 139°40'0 0.0
2017-Oct-20 06:30N 35°23' E 139°40'2 4.5
2017-Oct-20 06:00N 35°25' E 139°39'0 0.0
2017-Oct-20 05:30N 35°25' E 139°39'0 0.0
2017-Oct-20 05:00N 35°25' E 139°39'0 0.0
2017-Oct-20 04:30N 35°25' E 139°39'0 0.0
2017-Oct-20 04:00N 35°25' E 139°39'0 0.0
2017-Oct-20 03:30N 35°25' E 139°39'0 0.0
2017-Oct-20 03:00N 35°25' E 139°39'0 0.0
2017-Oct-20 02:30N 35°25' E 139°39'0 0.1
2017-Oct-20 02:00N 35°25' E 139°39'3 5.2
2017-Oct-20 01:30N 35°25' E 139°42'5 9.6
2017-Oct-20 01:00N 35°30' E 139°43'2 0.9
2017-Oct-19 22:33N 35°31' E 139°45'0 0.0
2017-Oct-19 22:30N 35°31' E 139°45'2 4.8
2017-Oct-19 22:00N 35°29' E 139°43'4 7.7
2017-Oct-19 21:30N 35°25' E 139°43'3 6.8
2017-Oct-19 21:00N 35°23' E 139°40'0 0.0
2017-Oct-19 20:29N 35°23' E 139°40'0 0.0
2017-Oct-19 19:59N 35°23' E 139°40'0 0.0
2017-Oct-19 19:29N 35°23' E 139°40'0 0.0
2017-Oct-19 18:59N 35°23' E 139°40'0 0.0
2017-Oct-19 18:25N 35°23' E 139°40'0 0.0
2017-Oct-19 17:58N 35°23' E 139°40'0 0.0
2017-Oct-19 17:28N 35°23' E 139°40'0 0.0
2017-Oct-19 16:55N 35°23' E 139°40'0 0.0
2017-Oct-19 16:16N 35°23' E 139°40'0 0.0
2017-Oct-19 15:58N 35°23' E 139°40'0 0.0
2017-Oct-19 15:28N 35°23' E 139°40'0 0.0
2017-Oct-19 14:58N 35°23' E 139°40'0 0.0
2017-Oct-19 14:28N 35°23' E 139°40'0 0.0
2017-Oct-19 13:58N 35°23' E 139°40'0 0.1
2017-Oct-19 13:28N 35°23' E 139°40'0 0.0
2017-Oct-19 12:58N 35°23' E 139°40'0 0.0
2017-Oct-19 12:28N 35°23' E 139°40'0 0.0
2017-Oct-19 11:58N 35°23' E 139°40'0 0.1
2017-Oct-19 11:28N 35°23' E 139°40'0 0.1
2017-Oct-19 10:58N 35°23' E 139°40'0 0.1
2017-Oct-19 10:28N 35°23' E 139°40'0 0.0
2017-Oct-19 09:58N 35°23' E 139°40'0 0.0
2017-Oct-19 09:28N 35°23' E 139°40'0 0.0
2017-Oct-19 08:58N 35°23' E 139°40'0 0.0
2017-Oct-19 08:28N 35°23' E 139°40'0 0.0
2017-Oct-19 07:58N 35°23' E 139°40'0 0.0
2017-Oct-19 07:28N 35°23' E 139°40'0 0.0
2017-Oct-19 06:58N 35°23' E 139°40'0 0.8
2017-Oct-19 06:30N 35°23' E 139°40'2 3.9
2017-Oct-19 06:00N 35°25' E 139°39'0 0.0
2017-Oct-19 05:30N 35°25' E 139°39'0 0.0
2017-Oct-19 05:00N 35°25' E 139°39'0 0.0
2017-Oct-19 04:30N 35°25' E 139°39'0 0.0
2017-Oct-19 04:00N 35°25' E 139°39'0 0.0
2017-Oct-19 03:30N 35°25' E 139°39'0 0.0
2017-Oct-19 03:00N 35°25' E 139°39'1 1.1
2017-Oct-19 02:30N 35°24' E 139°39'3 6.6
2017-Oct-19 02:00N 35°25' E 139°43'611.1
2017-Oct-19 01:30N 35°30' E 139°47'2 1.0
2017-Oct-18 23:00N 35°31' E 139°45'0 0.3
2017-Oct-18 22:29N 35°31' E 139°45'3 7.0
2017-Oct-18 22:00N 35°29' E 139°42'4 8.6
2017-Oct-18 21:30N 35°24' E 139°42'2 4.1
2017-Oct-18 21:00N 35°23' E 139°40'0 0.0
2017-Oct-18 20:28N 35°23' E 139°40'0 0.0
2017-Oct-18 19:58N 35°23' E 139°40'0 0.0
2017-Oct-18 19:28N 35°23' E 139°40'0 0.0
2017-Oct-18 18:58N 35°23' E 139°40'0 0.0
2017-Oct-18 18:28N 35°23' E 139°40'0 0.0
2017-Oct-18 17:58N 35°23' E 139°40'0 0.0
2017-Oct-18 17:28N 35°23' E 139°40'0 0.0
2017-Oct-18 16:58N 35°23' E 139°40'0 0.0
2017-Oct-18 16:28N 35°23' E 139°40'0 0.0
2017-Oct-18 15:58N 35°23' E 139°40'0 0.0
2017-Oct-18 15:28N 35°23' E 139°40'0 0.0
2017-Oct-18 14:58N 35°23' E 139°40'0 0.0
2017-Oct-18 13:55N 35°23' E 139°40'0 0.0
2017-Oct-18 13:28N 35°23' E 139°40'0 0.0
2017-Oct-18 12:58N 35°23' E 139°40'0 0.0
2017-Oct-18 12:28N 35°23' E 139°40'0 0.0
2017-Oct-18 11:58N 35°23' E 139°40'0 0.0
2017-Oct-18 11:28N 35°23' E 139°40'0 0.0
2017-Oct-18 10:58N 35°23' E 139°40'0 0.0
2017-Oct-18 10:28N 35°23' E 139°40'0 0.1
2017-Oct-18 09:58N 35°23' E 139°40'0 0.0
2017-Oct-18 09:28N 35°23' E 139°40'0 0.0
2017-Oct-18 08:58N 35°23' E 139°40'0 0.1
2017-Oct-18 08:28N 35°23' E 139°40'0 0.1
2017-Oct-18 07:58N 35°23' E 139°40'0 0.1
2017-Oct-18 07:25N 35°23' E 139°40'0 0.0
2017-Oct-18 06:58N 35°23' E 139°40'0 0.0
2017-Oct-18 06:28N 35°23' E 139°40'0 0.0
2017-Oct-18 06:00N 35°23' E 139°40'2 3.5
2017-Oct-18 05:31N 35°24' E 139°39'0 0.8
2017-Oct-18 05:00N 35°25' E 139°39'0 0.0
2017-Oct-18 04:30N 35°25' E 139°39'0 0.0
2017-Oct-18 04:00N 35°25' E 139°39'0 0.0
2017-Oct-18 03:30N 35°25' E 139°39'0 0.0
2017-Oct-18 03:00N 35°25' E 139°39'0 0.0
2017-Oct-18 02:30N 35°25' E 139°39'0 0.0
2017-Oct-18 02:00N 35°25' E 139°39'1 2.3
2017-Oct-18 01:31N 35°24' E 139°40'4 7.7
2017-Oct-18 01:01N 35°27' E 139°43'4 7.9
2017-Oct-18 00:31N 35°30' E 139°45'1 0.4
2017-Oct-17 22:36N 35°31' E 139°45'0 1.1
2017-Oct-17 22:26N 35°31' E 139°45'3 7.1
2017-Oct-17 22:01N 35°29' E 139°42'4 9.0
2017-Oct-17 21:31N 35°24' E 139°42'2 4.5
2017-Oct-17 21:00N 35°23' E 139°40'0 0.0
2017-Oct-17 20:30N 35°23' E 139°40'0 0.0
2017-Oct-17 20:00N 35°23' E 139°40'0 0.0
2017-Oct-17 19:30N 35°23' E 139°40'0 0.0
2017-Oct-17 19:00N 35°23' E 139°40'0 0.0
2017-Oct-17 18:27N 35°23' E 139°40'0 0.0
2017-Oct-17 18:00N 35°23' E 139°40'0 0.0
2017-Oct-17 17:30N 35°23' E 139°40'0 0.0
2017-Oct-17 17:00N 35°23' E 139°40'0 0.0
2017-Oct-17 16:30N 35°23' E 139°40'0 0.0
2017-Oct-17 16:00N 35°23' E 139°40'0 0.0
2017-Oct-17 15:30N 35°23' E 139°40'0 0.0
2017-Oct-17 15:00N 35°23' E 139°40'0 0.0
2017-Oct-17 14:27N 35°23' E 139°40'0 0.0
2017-Oct-17 14:00N 35°23' E 139°40'0 0.0
2017-Oct-17 13:30N 35°23' E 139°40'0 0.0
2017-Oct-17 13:00N 35°23' E 139°40'0 0.0
2017-Oct-17 12:30N 35°23' E 139°40'0 0.0
2017-Oct-17 12:00N 35°23' E 139°40'0 0.0
2017-Oct-17 11:30N 35°23' E 139°40'0 0.1
2017-Oct-17 11:00N 35°23' E 139°40'0 0.0
2017-Oct-17 10:30N 35°23' E 139°40'0 0.0
2017-Oct-17 10:00N 35°23' E 139°40'0 0.0
2017-Oct-17 09:30N 35°23' E 139°40'0 0.1
2017-Oct-17 08:57N 35°23' E 139°40'0 0.0
2017-Oct-17 08:30N 35°23' E 139°40'0 0.0
2017-Oct-17 08:00N 35°23' E 139°40'0 0.0
2017-Oct-17 07:30N 35°23' E 139°40'0 0.0
2017-Oct-17 07:00N 35°23' E 139°40'0 0.0
2017-Oct-17 06:30N 35°23' E 139°40'0 0.0
2017-Oct-17 06:00N 35°23' E 139°40'0 0.0
2017-Oct-17 05:30N 35°23' E 139°40'0 0.1
2017-Oct-17 05:00N 35°23' E 139°40'0 0.1
2017-Oct-17 04:30N 35°23' E 139°40'2 4.7
2017-Oct-17 04:00N 35°25' E 139°39'0 0.0
2017-Oct-17 03:28N 35°25' E 139°39'0 0.0
2017-Oct-17 03:00N 35°25' E 139°39'0 0.0
2017-Oct-17 02:26N 35°25' E 139°39'0 0.0
2017-Oct-17 02:00N 35°25' E 139°39'0 0.0
2017-Oct-17 01:29N 35°25' E 139°39'2 4.3
2017-Oct-17 01:00N 35°23' E 139°41'5 9.6
2017-Oct-17 00:30N 35°28' E 139°42'4 7.6
2017-Oct-17 00:00N 35°31' E 139°45'0 0.0
2017-Oct-16 22:12N 35°31' E 139°45'1 4.8
2017-Oct-16 22:00N 35°30' E 139°45'4 7.4
2017-Oct-16 21:31N 35°27' E 139°43'5 9.0
2017-Oct-16 21:00N 35°23' E 139°41'0 1.0
2017-Oct-16 20:30N 35°23' E 139°40'0 0.0
2017-Oct-16 19:59N 35°23' E 139°40'0 0.0
2017-Oct-16 19:29N 35°23' E 139°40'0 0.0
2017-Oct-16 18:56N 35°23' E 139°40'0 0.0
2017-Oct-16 18:26N 35°23' E 139°40'0 0.0
2017-Oct-16 17:59N 35°23' E 139°40'0 0.0
2017-Oct-16 17:29N 35°23' E 139°40'0 0.0
2017-Oct-16 16:56N 35°23' E 139°40'0 0.0
2017-Oct-16 16:28N 35°23' E 139°40'0 0.0
2017-Oct-16 15:58N 35°23' E 139°40'0 0.0
2017-Oct-16 15:28N 35°23' E 139°40'0 0.0
2017-Oct-16 14:58N 35°23' E 139°40'0 0.0
2017-Oct-16 13:58N 35°23' E 139°40'0 0.0
2017-Oct-16 13:28N 35°23' E 139°40'0 0.0
2017-Oct-16 12:58N 35°23' E 139°40'0 0.1
2017-Oct-16 12:28N 35°23' E 139°40'0 0.1
2017-Oct-16 11:58N 35°23' E 139°40'0 0.1
2017-Oct-16 11:28N 35°23' E 139°40'0 0.0
2017-Oct-16 10:58N 35°23' E 139°40'0 0.0
2017-Oct-16 10:28N 35°23' E 139°40'0 0.0
2017-Oct-16 09:58N 35°23' E 139°40'0 0.0
2017-Oct-16 09:28N 35°23' E 139°40'0 0.1
2017-Oct-16 08:55N 35°23' E 139°40'0 0.0
2017-Oct-16 08:28N 35°23' E 139°40'0 0.0
2017-Oct-16 07:58N 35°23' E 139°40'0 0.0
2017-Oct-16 07:28N 35°23' E 139°40'0 0.0
2017-Oct-16 07:00N 35°23' E 139°40'0 0.0
2017-Oct-16 06:30N 35°23' E 139°40'0 0.0
2017-Oct-16 06:00N 35°23' E 139°40'0 0.0
2017-Oct-16 05:30N 35°23' E 139°40'2 4.2
2017-Oct-16 05:00N 35°24' E 139°39'0 0.6
2017-Oct-16 04:30N 35°25' E 139°39'0 0.0
2017-Oct-16 04:00N 35°25' E 139°39'0 0.0
2017-Oct-16 03:30N 35°25' E 139°39'0 0.0
2017-Oct-16 03:00N 35°25' E 139°39'0 0.0
2017-Oct-16 02:25N 35°25' E 139°39'0 1.0
2017-Oct-16 02:00N 35°24' E 139°39'3 6.7
2017-Oct-16 01:30N 35°26' E 139°42'4 8.4
2017-Oct-16 01:00N 35°30' E 139°45'1 0.4
2017-Oct-15 22:38N 35°31' E 139°45'0 0.7
2017-Oct-15 22:26N 35°31' E 139°45'3 7.4
2017-Oct-15 22:00N 35°29' E 139°42'4 8.7
2017-Oct-15 21:30N 35°25' E 139°42'2 4.7
2017-Oct-15 21:00N 35°23' E 139°40'0 0.0
2017-Oct-15 20:30N 35°23' E 139°40'0 0.0
2017-Oct-15 20:00N 35°23' E 139°40'0 0.0
2017-Oct-15 19:30N 35°23' E 139°40'0 0.0
2017-Oct-15 19:00N 35°23' E 139°40'0 0.0
2017-Oct-15 18:30N 35°23' E 139°40'0 0.0
2017-Oct-15 18:00N 35°23' E 139°40'0 0.0
2017-Oct-15 17:30N 35°23' E 139°40'0 0.0
2017-Oct-15 17:00N 35°23' E 139°40'0 0.0
2017-Oct-15 16:30N 35°23' E 139°40'0 0.0
2017-Oct-15 16:00N 35°23' E 139°40'0 0.0
2017-Oct-15 15:30N 35°23' E 139°40'0 0.0
2017-Oct-15 15:00N 35°23' E 139°40'0 0.0
2017-Oct-15 13:57N 35°23' E 139°40'0 0.0
2017-Oct-15 13:30N 35°23' E 139°40'0 0.0
2017-Oct-15 13:00N 35°23' E 139°40'0 0.0
2017-Oct-15 12:30N 35°23' E 139°40'0 0.0
2017-Oct-15 12:00N 35°23' E 139°40'0 0.0
2017-Oct-15 11:30N 35°23' E 139°40'0 0.0
2017-Oct-15 11:00N 35°23' E 139°40'0 0.0
2017-Oct-15 10:30N 35°23' E 139°40'0 0.0
2017-Oct-15 10:00N 35°23' E 139°40'0 0.0
2017-Oct-15 09:30N 35°23' E 139°40'0 0.0
2017-Oct-15 09:00N 35°23' E 139°40'0 0.0
2017-Oct-15 08:30N 35°23' E 139°40'0 0.0
2017-Oct-15 08:00N 35°23' E 139°40'0 0.0
2017-Oct-15 07:30N 35°23' E 139°40'0 0.0
2017-Oct-15 07:00N 35°23' E 139°40'2 4.5
2017-Oct-15 06:30N 35°25' E 139°39'0 0.0
2017-Oct-15 06:00N 35°25' E 139°39'0 0.0
2017-Oct-15 05:30N 35°25' E 139°39'0 0.0
2017-Oct-15 05:00N 35°25' E 139°39'0 0.0
2017-Oct-15 04:30N 35°25' E 139°39'0 0.0
2017-Oct-15 04:00N 35°25' E 139°39'0 0.0
2017-Oct-15 03:30N 35°25' E 139°39'0 0.0
2017-Oct-15 02:59N 35°25' E 139°39'1 2.8
2017-Oct-15 02:30N 35°24' E 139°40'4 8.2
2017-Oct-15 02:00N 35°27' E 139°42'4 8.1
2017-Oct-15 01:30N 35°31' E 139°45'1 0.2
2017-Oct-14 22:40N 35°31' E 139°45'0 0.7
2017-Oct-14 22:30N 35°31' E 139°45'3 6.4
2017-Oct-14 22:00N 35°29' E 139°42'4 9.0
2017-Oct-14 21:30N 35°24' E 139°42'2 4.3
2017-Oct-14 21:00N 35°23' E 139°40'0 0.0
2017-Oct-14 20:30N 35°23' E 139°40'0 0.0
2017-Oct-14 20:00N 35°23' E 139°40'0 0.0
2017-Oct-14 19:30N 35°23' E 139°40'0 0.0
2017-Oct-14 19:00N 35°23' E 139°40'0 0.0
2017-Oct-14 18:30N 35°23' E 139°40'0 0.0
2017-Oct-14 18:00N 35°23' E 139°40'0 0.0
2017-Oct-14 17:30N 35°23' E 139°40'0 0.0
2017-Oct-14 17:00N 35°23' E 139°40'0 0.1
2017-Oct-14 16:30N 35°23' E 139°40'0 0.0
2017-Oct-14 16:00N 35°23' E 139°40'0 0.1
2017-Oct-14 15:30N 35°23' E 139°40'0 0.1
2017-Oct-14 15:00N 35°23' E 139°40'0 0.0
2017-Oct-14 14:30N 35°23' E 139°40'0 0.0
2017-Oct-14 14:00N 35°23' E 139°40'0 0.0
2017-Oct-14 13:27N 35°23' E 139°40'0 0.0
2017-Oct-14 13:00N 35°23' E 139°40'0 0.0
2017-Oct-14 12:30N 35°23' E 139°40'0 0.0
2017-Oct-14 12:00N 35°23' E 139°40'0 0.0
2017-Oct-14 11:30N 35°23' E 139°40'0 0.1
2017-Oct-14 11:00N 35°23' E 139°40'0 0.0
2017-Oct-14 10:30N 35°23' E 139°40'0 0.0
2017-Oct-14 10:00N 35°23' E 139°40'0 0.0
2017-Oct-14 09:30N 35°23' E 139°40'0 0.0
2017-Oct-14 08:59N 35°23' E 139°40'1 1.2
2017-Oct-14 08:30N 35°23' E 139°40'2 3.5
2017-Oct-14 08:00N 35°25' E 139°39'0 0.0
2017-Oct-14 07:30N 35°25' E 139°39'0 0.0
2017-Oct-14 07:00N 35°25' E 139°39'0 0.0
2017-Oct-14 06:29N 35°25' E 139°39'0 0.0
2017-Oct-14 06:00N 35°25' E 139°39'0 0.0
2017-Oct-14 05:30N 35°25' E 139°39'0 0.0
2017-Oct-14 05:00N 35°25' E 139°39'0 0.0
2017-Oct-14 04:30N 35°25' E 139°39'0 0.9
2017-Oct-14 04:00N 35°24' E 139°39'2 4.6
2017-Oct-14 03:31N 35°23' E 139°41'2 4.3
2017-Oct-14 03:00N 35°23' E 139°44'0 0.1
2017-Oct-14 02:30N 35°23' E 139°44'0 0.1
2017-Oct-14 02:00N 35°23' E 139°44'0 0.0
2017-Oct-14 01:30N 35°23' E 139°44'0 0.0
2017-Oct-14 01:00N 35°23' E 139°44'0 0.0
2017-Oct-14 00:30N 35°23' E 139°44'0 0.0
2017-Oct-14 00:00N 35°23' E 139°44'0 0.0
2017-Oct-13 23:30N 35°23' E 139°44'0 0.0
2017-Oct-13 23:00N 35°23' E 139°44'2 3.2
2017-Oct-13 22:30N 35°25' E 139°44'5 9.2
2017-Oct-13 22:00N 35°29' E 139°42'0 0.1
2017-Oct-13 21:24N 35°29' E 139°42'0 0.0
2017-Oct-13 20:54N 35°29' E 139°42'0 0.0
2017-Oct-13 20:30N 35°29' E 139°42'0 0.0
2017-Oct-13 20:00N 35°29' E 139°42'0 0.0
2017-Oct-13 19:30N 35°29' E 139°42'0 0.0
2017-Oct-13 19:00N 35°29' E 139°42'0 0.0
2017-Oct-13 18:30N 35°29' E 139°42'0 0.0
2017-Oct-13 18:00N 35°29' E 139°42'0 0.0
2017-Oct-13 17:15N 35°29' E 139°42'0 0.0
2017-Oct-13 17:00N 35°29' E 139°42'0 0.0
2017-Oct-13 16:27N 35°29' E 139°42'0 0.0
2017-Oct-13 16:00N 35°29' E 139°42'0 0.0
2017-Oct-13 13:57N 35°29' E 139°42'0 0.0
2017-Oct-13 13:24N 35°29' E 139°42'0 0.0
2017-Oct-13 12:27N 35°29' E 139°42'0 0.0
2017-Oct-13 11:57N 35°29' E 139°42'0 0.0
2017-Oct-13 11:27N 35°29' E 139°42'0 0.0
2017-Oct-13 10:48N 35°29' E 139°42'0 0.0
2017-Oct-13 10:30N 35°29' E 139°42'0 0.0
2017-Oct-13 10:00N 35°29' E 139°42'0 0.0
2017-Oct-13 09:15N 35°29' E 139°42'0 0.0
2017-Oct-13 08:33N 35°29' E 139°42'0 0.0
2017-Oct-13 08:06N 35°29' E 139°42'0 0.0
2017-Oct-13 08:00N 35°29' E 139°42'0 0.0
2017-Oct-13 07:27N 35°29' E 139°42'0 0.0
2017-Oct-13 06:59N 35°29' E 139°42'0 0.0
2017-Oct-13 06:29N 35°29' E 139°42'0 0.0
2017-Oct-13 05:59N 35°29' E 139°42'0 0.0
2017-Oct-13 05:29N 35°29' E 139°42'0 0.0
2017-Oct-13 04:59N 35°29' E 139°42'0 0.0
2017-Oct-13 04:29N 35°29' E 139°42'0 0.0
2017-Oct-13 03:59N 35°29' E 139°42'0 0.0
2017-Oct-13 03:29N 35°29' E 139°42'0 0.0
2017-Oct-13 02:59N 35°29' E 139°42'0 0.0
2017-Oct-13 02:26N 35°29' E 139°42'0 0.0
2017-Oct-13 01:59N 35°29' E 139°42'0 0.0
2017-Oct-13 01:29N 35°29' E 139°42'0 0.0
2017-Oct-13 00:53N 35°29' E 139°42'0 0.0
2017-Oct-13 00:29N 35°29' E 139°42'0 0.0
2017-Oct-12 23:59N 35°29' E 139°42'0 0.0
2017-Oct-12 23:08N 35°29' E 139°42'0 0.0
2017-Oct-12 22:59N 35°29' E 139°42'0 0.0
2017-Oct-12 22:23N 35°29' E 139°42'0 0.0
2017-Oct-12 21:26N 35°29' E 139°42'0 0.0
2017-Oct-12 20:05N 35°29' E 139°42'0 0.0
2017-Oct-12 19:59N 35°29' E 139°42'0 0.0
2017-Oct-12 15:11N 35°29' E 139°42'0 0.0
2017-Oct-12 14:44N 35°29' E 139°42'0 0.0
2017-Oct-12 14:14N 35°29' E 139°42'0 0.0
2017-Oct-12 13:59N 35°29' E 139°42'0 0.0
2017-Oct-12 13:29N 35°29' E 139°42'0 0.0
2017-Oct-12 12:59N 35°29' E 139°42'0 0.0
2017-Oct-12 12:29N 35°29' E 139°42'0 0.0
2017-Oct-12 11:53N 35°29' E 139°42'0 0.0
2017-Oct-12 11:29N 35°29' E 139°42'0 0.0
2017-Oct-12 10:56N 35°29' E 139°42'0 0.0
2017-Oct-12 10:26N 35°29' E 139°42'0 0.0
2017-Oct-12 09:53N 35°29' E 139°42'0 0.0
2017-Oct-12 09:29N 35°29' E 139°42'0 0.0
2017-Oct-12 08:56N 35°29' E 139°42'0 0.0
2017-Oct-12 08:26N 35°29' E 139°42'0 0.0
2017-Oct-12 07:59N 35°29' E 139°42'0 0.0
2017-Oct-12 07:29N 35°29' E 139°42'0 0.0
2017-Oct-12 06:56N 35°29' E 139°42'0 0.0
2017-Oct-12 06:29N 35°29' E 139°42'0 0.0
2017-Oct-12 05:59N 35°29' E 139°42'0 0.0
2017-Oct-12 05:29N 35°29' E 139°42'0 0.0
2017-Oct-12 04:59N 35°29' E 139°42'0 0.0
2017-Oct-12 04:29N 35°29' E 139°42'0 0.0
2017-Oct-12 03:59N 35°29' E 139°42'0 0.0
2017-Oct-12 03:29N 35°29' E 139°42'0 0.0
2017-Oct-12 02:59N 35°29' E 139°42'0 0.0
2017-Oct-12 02:30N 35°29' E 139°42'0 0.0
2017-Oct-12 02:00N 35°29' E 139°42'0 0.4
2017-Oct-12 01:30N 35°29' E 139°42'3 6.6
2017-Oct-12 01:00N 35°31' E 139°45'4 1.2
2017-Oct-11 21:52N 35°28' E 139°42'4 0.2
2017-Oct-10 22:18N 35°31' E 139°45'3 7.7
2017-Oct-10 21:51N 35°28' E 139°42'  
Track history (hours):
 
Tides and Currents Weather Stations Pressure Air Temp Water Temp Dewpoint Dewpoint Depression Visibility Wind Speed Wind Dir Waves Ship Positions

Hakuseimaru No.11

Last reported at 2017-Oct-20 17:30 UTC. Time now 2017-Oct-20 17:53 UTC.
Position N 35°23' E 139°40'.

Length 62 m; draft 3.5 m.

Type: Tanker. MMSI: 431501815.

Date/timePositionNaut miles runAvg speedWind from/ knotsBaromVisibWave heightAir tempDewpointWater temp
2017-Oct-20 17:30N 35°23' E 139°40'0 0.0
2017-Oct-20 17:00N 35°23' E 139°40'0 0.0
2017-Oct-20 16:30N 35°23' E 139°40'0 0.0
2017-Oct-20 16:00N 35°23' E 139°40'0 0.1
2017-Oct-20 15:30N 35°23' E 139°40'0 0.0
2017-Oct-20 15:00N 35°23' E 139°40'0 0.0
2017-Oct-20 14:30N 35°23' E 139°40'0 0.0
2017-Oct-20 13:30N 35°23' E 139°40'0 0.0
2017-Oct-20 13:00N 35°23' E 139°40'0 0.1
2017-Oct-20 12:30N 35°23' E 139°40'0 0.1
2017-Oct-20 12:00N 35°23' E 139°40'0 0.1
2017-Oct-20 11:30N 35°23' E 139°40'0 0.0
2017-Oct-20 11:00N 35°23' E 139°40'0 0.0
2017-Oct-20 10:30N 35°23' E 139°40'0 0.0
2017-Oct-20 10:00N 35°23' E 139°40'0 0.0
2017-Oct-20 09:27N 35°23' E 139°40'0 0.0
2017-Oct-20 09:00N 35°23' E 139°40'0 0.0
2017-Oct-20 08:27N 35°23' E 139°40'0 0.0
2017-Oct-20 07:57N 35°23' E 139°40'0 0.0
2017-Oct-20 07:30N 35°23' E 139°40'0 0.0
2017-Oct-20 07:00N 35°23' E 139°40'0 0.0
2017-Oct-20 06:30N 35°23' E 139°40'2 4.5
2017-Oct-20 06:00N 35°25' E 139°39'0 0.0
2017-Oct-20 05:30N 35°25' E 139°39'0 0.0
2017-Oct-20 05:00N 35°25' E 139°39'0 0.0
2017-Oct-20 04:30N 35°25' E 139°39'0 0.0
2017-Oct-20 04:00N 35°25' E 139°39'0 0.0
2017-Oct-20 03:30N 35°25' E 139°39'0 0.0
2017-Oct-20 03:00N 35°25' E 139°39'0 0.0
2017-Oct-20 02:30N 35°25' E 139°39'0 0.1
2017-Oct-20 02:00N 35°25' E 139°39'3 5.2
2017-Oct-20 01:30N 35°25' E 139°42'5 9.6
2017-Oct-20 01:00N 35°30' E 139°43'2 0.9
2017-Oct-19 22:33N 35°31' E 139°45'0 0.0
2017-Oct-19 22:30N 35°31' E 139°45'2 4.8
2017-Oct-19 22:00N 35°29' E 139°43'4 7.7
2017-Oct-19 21:30N 35°25' E 139°43'3 6.8
2017-Oct-19 21:00N 35°23' E 139°40'0 0.0
2017-Oct-19 20:29N 35°23' E 139°40'0 0.0
2017-Oct-19 19:59N 35°23' E 139°40'0 0.0
2017-Oct-19 19:29N 35°23' E 139°40'0 0.0
2017-Oct-19 18:59N 35°23' E 139°40'0 0.0
2017-Oct-19 18:25N 35°23' E 139°40'0 0.0
2017-Oct-19 17:58N 35°23' E 139°40'0 0.0
2017-Oct-19 17:28N 35°23' E 139°40'0 0.0
2017-Oct-19 16:55N 35°23' E 139°40'0 0.0
2017-Oct-19 16:16N 35°23' E 139°40'0 0.0
2017-Oct-19 15:58N 35°23' E 139°40'0 0.0
2017-Oct-19 15:28N 35°23' E 139°40'0 0.0
2017-Oct-19 14:58N 35°23' E 139°40'0 0.0
2017-Oct-19 14:28N 35°23' E 139°40'0 0.0
2017-Oct-19 13:58N 35°23' E 139°40'0 0.1
2017-Oct-19 13:28N 35°23' E 139°40'0 0.0
2017-Oct-19 12:58N 35°23' E 139°40'0 0.0
2017-Oct-19 12:28N 35°23' E 139°40'0 0.0
2017-Oct-19 11:58N 35°23' E 139°40'0 0.1
2017-Oct-19 11:28N 35°23' E 139°40'0 0.1
2017-Oct-19 10:58N 35°23' E 139°40'0 0.1
2017-Oct-19 10:28N 35°23' E 139°40'0 0.0
2017-Oct-19 09:58N 35°23' E 139°40'0 0.0
2017-Oct-19 09:28N 35°23' E 139°40'0 0.0
2017-Oct-19 08:58N 35°23' E 139°40'0 0.0
2017-Oct-19 08:28N 35°23' E 139°40'0 0.0
2017-Oct-19 07:58N 35°23' E 139°40'0 0.0
2017-Oct-19 07:28N 35°23' E 139°40'0 0.0
2017-Oct-19 06:58N 35°23' E 139°40'0 0.8
2017-Oct-19 06:30N 35°23' E 139°40'2 3.9
2017-Oct-19 06:00N 35°25' E 139°39'0 0.0
2017-Oct-19 05:30N 35°25' E 139°39'0 0.0
2017-Oct-19 05:00N 35°25' E 139°39'0 0.0
2017-Oct-19 04:30N 35°25' E 139°39'0 0.0
2017-Oct-19 04:00N 35°25' E 139°39'0 0.0
2017-Oct-19 03:30N 35°25' E 139°39'0 0.0
2017-Oct-19 03:00N 35°25' E 139°39'1 1.1
2017-Oct-19 02:30N 35°24' E 139°39'3 6.6
2017-Oct-19 02:00N 35°25' E 139°43'611.1
2017-Oct-19 01:30N 35°30' E 139°47'2 1.0
2017-Oct-18 23:00N 35°31' E 139°45'0 0.3
2017-Oct-18 22:29N 35°31' E 139°45'3 7.0
2017-Oct-18 22:00N 35°29' E 139°42'4 8.6
2017-Oct-18 21:30N 35°24' E 139°42'2 4.1
2017-Oct-18 21:00N 35°23' E 139°40'0 0.0
2017-Oct-18 20:28N 35°23' E 139°40'0 0.0
2017-Oct-18 19:58N 35°23' E 139°40'0 0.0
2017-Oct-18 19:28N 35°23' E 139°40'0 0.0
2017-Oct-18 18:58N 35°23' E 139°40'0 0.0
2017-Oct-18 18:28N 35°23' E 139°40'0 0.0
2017-Oct-18 17:58N 35°23' E 139°40'0 0.0
2017-Oct-18 17:28N 35°23' E 139°40'0 0.0
2017-Oct-18 16:58N 35°23' E 139°40'0 0.0
2017-Oct-18 16:28N 35°23' E 139°40'0 0.0
2017-Oct-18 15:58N 35°23' E 139°40'0 0.0
2017-Oct-18 15:28N 35°23' E 139°40'0 0.0
2017-Oct-18 14:58N 35°23' E 139°40'0 0.0
2017-Oct-18 13:55N 35°23' E 139°40'0 0.0
2017-Oct-18 13:28N 35°23' E 139°40'0 0.0
2017-Oct-18 12:58N 35°23' E 139°40'0 0.0
2017-Oct-18 12:28N 35°23' E 139°40'0 0.0
2017-Oct-18 11:58N 35°23' E 139°40'0 0.0
2017-Oct-18 11:28N 35°23' E 139°40'0 0.0
2017-Oct-18 10:58N 35°23' E 139°40'0 0.0
2017-Oct-18 10:28N 35°23' E 139°40'0 0.1
2017-Oct-18 09:58N 35°23' E 139°40'0 0.0
2017-Oct-18 09:28N 35°23' E 139°40'0 0.0
2017-Oct-18 08:58N 35°23' E 139°40'0 0.1
2017-Oct-18 08:28N 35°23' E 139°40'0 0.1
2017-Oct-18 07:58N 35°23' E 139°40'0 0.1
2017-Oct-18 07:25N 35°23' E 139°40'0 0.0
2017-Oct-18 06:58N 35°23' E 139°40'0 0.0
2017-Oct-18 06:28N 35°23' E 139°40'0 0.0
2017-Oct-18 06:00N 35°23' E 139°40'2 3.5
2017-Oct-18 05:31N 35°24' E 139°39'0 0.8
2017-Oct-18 05:00N 35°25' E 139°39'0 0.0
2017-Oct-18 04:30N 35°25' E 139°39'0 0.0
2017-Oct-18 04:00N 35°25' E 139°39'0 0.0
2017-Oct-18 03:30N 35°25' E 139°39'0 0.0
2017-Oct-18 03:00N 35°25' E 139°39'0 0.0
2017-Oct-18 02:30N 35°25' E 139°39'0 0.0
2017-Oct-18 02:00N 35°25' E 139°39'1 2.3
2017-Oct-18 01:31N 35°24' E 139°40'4 7.7
2017-Oct-18 01:01N 35°27' E 139°43'4 7.9
2017-Oct-18 00:31N 35°30' E 139°45'1 0.4
2017-Oct-17 22:36N 35°31' E 139°45'0 1.1
2017-Oct-17 22:26N 35°31' E 139°45'3 7.1
2017-Oct-17 22:01N 35°29' E 139°42'4 9.0
2017-Oct-17 21:31N 35°24' E 139°42'2 4.5
2017-Oct-17 21:00N 35°23' E 139°40'0 0.0
2017-Oct-17 20:30N 35°23' E 139°40'0 0.0
2017-Oct-17 20:00N 35°23' E 139°40'0 0.0
2017-Oct-17 19:30N 35°23' E 139°40'0 0.0
2017-Oct-17 19:00N 35°23' E 139°40'0 0.0
2017-Oct-17 18:27N 35°23' E 139°40'0 0.0
2017-Oct-17 18:00N 35°23' E 139°40'0 0.0
2017-Oct-17 17:30N 35°23' E 139°40'0 0.0
2017-Oct-17 17:00N 35°23' E 139°40'0 0.0
2017-Oct-17 16:30N 35°23' E 139°40'0 0.0
2017-Oct-17 16:00N 35°23' E 139°40'0 0.0
2017-Oct-17 15:30N 35°23' E 139°40'0 0.0
2017-Oct-17 15:00N 35°23' E 139°40'0 0.0
2017-Oct-17 14:27N 35°23' E 139°40'0 0.0
2017-Oct-17 14:00N 35°23' E 139°40'0 0.0
2017-Oct-17 13:30N 35°23' E 139°40'0 0.0
2017-Oct-17 13:00N 35°23' E 139°40'0 0.0
2017-Oct-17 12:30N 35°23' E 139°40'0 0.0
2017-Oct-17 12:00N 35°23' E 139°40'0 0.0
2017-Oct-17 11:30N 35°23' E 139°40'0 0.1
2017-Oct-17 11:00N 35°23' E 139°40'0 0.0
2017-Oct-17 10:30N 35°23' E 139°40'0 0.0
2017-Oct-17 10:00N 35°23' E 139°40'0 0.0
2017-Oct-17 09:30N 35°23' E 139°40'0 0.1
2017-Oct-17 08:57N 35°23' E 139°40'0 0.0
2017-Oct-17 08:30N 35°23' E 139°40'0 0.0
2017-Oct-17 08:00N 35°23' E 139°40'0 0.0
2017-Oct-17 07:30N 35°23' E 139°40'0 0.0
2017-Oct-17 07:00N 35°23' E 139°40'0 0.0
2017-Oct-17 06:30N 35°23' E 139°40'0 0.0
2017-Oct-17 06:00N 35°23' E 139°40'0 0.0
2017-Oct-17 05:30N 35°23' E 139°40'0 0.1
2017-Oct-17 05:00N 35°23' E 139°40'0 0.1
2017-Oct-17 04:30N 35°23' E 139°40'2 4.7
2017-Oct-17 04:00N 35°25' E 139°39'0 0.0
2017-Oct-17 03:28N 35°25' E 139°39'0 0.0
2017-Oct-17 03:00N 35°25' E 139°39'0 0.0
2017-Oct-17 02:26N 35°25' E 139°39'0 0.0
2017-Oct-17 02:00N 35°25' E 139°39'0 0.0
2017-Oct-17 01:29N 35°25' E 139°39'2 4.3
2017-Oct-17 01:00N 35°23' E 139°41'5 9.6
2017-Oct-17 00:30N 35°28' E 139°42'4 7.6
2017-Oct-17 00:00N 35°31' E 139°45'0 0.0
2017-Oct-16 22:12N 35°31' E 139°45'1 4.8
2017-Oct-16 22:00N 35°30' E 139°45'4 7.4
2017-Oct-16 21:31N 35°27' E 139°43'5 9.0
2017-Oct-16 21:00N 35°23' E 139°41'0 1.0
2017-Oct-16 20:30N 35°23' E 139°40'0 0.0
2017-Oct-16 19:59N 35°23' E 139°40'0 0.0
2017-Oct-16 19:29N 35°23' E 139°40'0 0.0
2017-Oct-16 18:56N 35°23' E 139°40'0 0.0
2017-Oct-16 18:26N 35°23' E 139°40'0 0.0
2017-Oct-16 17:59N 35°23' E 139°40'0 0.0
2017-Oct-16 17:29N 35°23' E 139°40'0 0.0
2017-Oct-16 16:56N 35°23' E 139°40'0 0.0
2017-Oct-16 16:28N 35°23' E 139°40'0 0.0
2017-Oct-16 15:58N 35°23' E 139°40'0 0.0
2017-Oct-16 15:28N 35°23' E 139°40'0 0.0
2017-Oct-16 14:58N 35°23' E 139°40'0 0.0
2017-Oct-16 13:58N 35°23' E 139°40'0 0.0
2017-Oct-16 13:28N 35°23' E 139°40'0 0.0
2017-Oct-16 12:58N 35°23' E 139°40'0 0.1
2017-Oct-16 12:28N 35°23' E 139°40'0 0.1
2017-Oct-16 11:58N 35°23' E 139°40'0 0.1
2017-Oct-16 11:28N 35°23' E 139°40'0 0.0
2017-Oct-16 10:58N 35°23' E 139°40'0 0.0
2017-Oct-16 10:28N 35°23' E 139°40'0 0.0
2017-Oct-16 09:58N 35°23' E 139°40'0 0.0
2017-Oct-16 09:28N 35°23' E 139°40'0 0.1
2017-Oct-16 08:55N 35°23' E 139°40'0 0.0
2017-Oct-16 08:28N 35°23' E 139°40'0 0.0
2017-Oct-16 07:58N 35°23' E 139°40'0 0.0
2017-Oct-16 07:28N 35°23' E 139°40'0 0.0
2017-Oct-16 07:00N 35°23' E 139°40'0 0.0
2017-Oct-16 06:30N 35°23' E 139°40'0 0.0
2017-Oct-16 06:00N 35°23' E 139°40'0 0.0
2017-Oct-16 05:30N 35°23' E 139°40'2 4.2
2017-Oct-16 05:00N 35°24' E 139°39'0 0.6
2017-Oct-16 04:30N 35°25' E 139°39'0 0.0
2017-Oct-16 04:00N 35°25' E 139°39'0 0.0
2017-Oct-16 03:30N 35°25' E 139°39'0 0.0
2017-Oct-16 03:00N 35°25' E 139°39'0 0.0
2017-Oct-16 02:25N 35°25' E 139°39'0 1.0
2017-Oct-16 02:00N 35°24' E 139°39'3 6.7
2017-Oct-16 01:30N 35°26' E 139°42'4 8.4
2017-Oct-16 01:00N 35°30' E 139°45'1 0.4
2017-Oct-15 22:38N 35°31' E 139°45'0 0.7
2017-Oct-15 22:26N 35°31' E 139°45'3 7.4
2017-Oct-15 22:00N 35°29' E 139°42'4 8.7
2017-Oct-15 21:30N 35°25' E 139°42'2 4.7
2017-Oct-15 21:00N 35°23' E 139°40'0 0.0
2017-Oct-15 20:30N 35°23' E 139°40'0 0.0
2017-Oct-15 20:00N 35°23' E 139°40'0 0.0
2017-Oct-15 19:30N 35°23' E 139°40'0 0.0
2017-Oct-15 19:00N 35°23' E 139°40'0 0.0
2017-Oct-15 18:30N 35°23' E 139°40'0 0.0
2017-Oct-15 18:00N 35°23' E 139°40'0 0.0
2017-Oct-15 17:30N 35°23' E 139°40'0 0.0
2017-Oct-15 17:00N 35°23' E 139°40'0 0.0
2017-Oct-15 16:30N 35°23' E 139°40'0 0.0
2017-Oct-15 16:00N 35°23' E 139°40'0 0.0
2017-Oct-15 15:30N 35°23' E 139°40'0 0.0
2017-Oct-15 15:00N 35°23' E 139°40'0 0.0
2017-Oct-15 13:57N 35°23' E 139°40'0 0.0
2017-Oct-15 13:30N 35°23' E 139°40'0 0.0
2017-Oct-15 13:00N 35°23' E 139°40'0 0.0
2017-Oct-15 12:30N 35°23' E 139°40'0 0.0
2017-Oct-15 12:00N 35°23' E 139°40'0 0.0
2017-Oct-15 11:30N 35°23' E 139°40'0 0.0
2017-Oct-15 11:00N 35°23' E 139°40'0 0.0
2017-Oct-15 10:30N 35°23' E 139°40'0 0.0
2017-Oct-15 10:00N 35°23' E 139°40'0 0.0
2017-Oct-15 09:30N 35°23' E 139°40'0 0.0
2017-Oct-15 09:00N 35°23' E 139°40'0 0.0
2017-Oct-15 08:30N 35°23' E 139°40'0 0.0
2017-Oct-15 08:00N 35°23' E 139°40'0 0.0
2017-Oct-15 07:30N 35°23' E 139°40'0 0.0
2017-Oct-15 07:00N 35°23' E 139°40'2 4.5
2017-Oct-15 06:30N 35°25' E 139°39'0 0.0
2017-Oct-15 06:00N 35°25' E 139°39'0 0.0
2017-Oct-15 05:30N 35°25' E 139°39'0 0.0
2017-Oct-15 05:00N 35°25' E 139°39'0 0.0
2017-Oct-15 04:30N 35°25' E 139°39'0 0.0
2017-Oct-15 04:00N 35°25' E 139°39'0 0.0
2017-Oct-15 03:30N 35°25' E 139°39'0 0.0
2017-Oct-15 02:59N 35°25' E 139°39'1 2.8
2017-Oct-15 02:30N 35°24' E 139°40'4 8.2
2017-Oct-15 02:00N 35°27' E 139°42'4 8.1
2017-Oct-15 01:30N 35°31' E 139°45'1 0.2
2017-Oct-14 22:40N 35°31' E 139°45'0 0.7
2017-Oct-14 22:30N 35°31' E 139°45'3 6.4
2017-Oct-14 22:00N 35°29' E 139°42'4 9.0
2017-Oct-14 21:30N 35°24' E 139°42'2 4.3
2017-Oct-14 21:00N 35°23' E 139°40'0 0.0
2017-Oct-14 20:30N 35°23' E 139°40'0 0.0
2017-Oct-14 20:00N 35°23' E 139°40'0 0.0
2017-Oct-14 19:30N 35°23' E 139°40'0 0.0
2017-Oct-14 19:00N 35°23' E 139°40'0 0.0
2017-Oct-14 18:30N 35°23' E 139°40'0 0.0
2017-Oct-14 18:00N 35°23' E 139°40'0 0.0
2017-Oct-14 17:30N 35°23' E 139°40'0 0.0
2017-Oct-14 17:00N 35°23' E 139°40'0 0.1
2017-Oct-14 16:30N 35°23' E 139°40'0 0.0
2017-Oct-14 16:00N 35°23' E 139°40'0 0.1
2017-Oct-14 15:30N 35°23' E 139°40'0 0.1
2017-Oct-14 15:00N 35°23' E 139°40'0 0.0
2017-Oct-14 14:30N 35°23' E 139°40'0 0.0
2017-Oct-14 14:00N 35°23' E 139°40'0 0.0
2017-Oct-14 13:27N 35°23' E 139°40'0 0.0
2017-Oct-14 13:00N 35°23' E 139°40'0 0.0
2017-Oct-14 12:30N 35°23' E 139°40'0 0.0
2017-Oct-14 12:00N 35°23' E 139°40'0 0.0
2017-Oct-14 11:30N 35°23' E 139°40'0 0.1
2017-Oct-14 11:00N 35°23' E 139°40'0 0.0
2017-Oct-14 10:30N 35°23' E 139°40'0 0.0
2017-Oct-14 10:00N 35°23' E 139°40'0 0.0
2017-Oct-14 09:30N 35°23' E 139°40'0 0.0
2017-Oct-14 08:59N 35°23' E 139°40'1 1.2
2017-Oct-14 08:30N 35°23' E 139°40'2 3.5
2017-Oct-14 08:00N 35°25' E 139°39'0 0.0
2017-Oct-14 07:30N 35°25' E 139°39'0 0.0
2017-Oct-14 07:00N 35°25' E 139°39'0 0.0
2017-Oct-14 06:29N 35°25' E 139°39'0 0.0
2017-Oct-14 06:00N 35°25' E 139°39'0 0.0
2017-Oct-14 05:30N 35°25' E 139°39'0 0.0
2017-Oct-14 05:00N 35°25' E 139°39'0 0.0
2017-Oct-14 04:30N 35°25' E 139°39'0 0.9
2017-Oct-14 04:00N 35°24' E 139°39'2 4.6
2017-Oct-14 03:31N 35°23' E 139°41'2 4.3
2017-Oct-14 03:00N 35°23' E 139°44'0 0.1
2017-Oct-14 02:30N 35°23' E 139°44'0 0.1
2017-Oct-14 02:00N 35°23' E 139°44'0 0.0
2017-Oct-14 01:30N 35°23' E 139°44'0 0.0
2017-Oct-14 01:00N 35°23' E 139°44'0 0.0
2017-Oct-14 00:30N 35°23' E 139°44'0 0.0
2017-Oct-14 00:00N 35°23' E 139°44'0 0.0
2017-Oct-13 23:30N 35°23' E 139°44'0 0.0
2017-Oct-13 23:00N 35°23' E 139°44'2 3.2
2017-Oct-13 22:30N 35°25' E 139°44'5 9.2
2017-Oct-13 22:00N 35°29' E 139°42'0 0.1
2017-Oct-13 21:24N 35°29' E 139°42'0 0.0
2017-Oct-13 20:54N 35°29' E 139°42'0 0.0
2017-Oct-13 20:30N 35°29' E 139°42'0 0.0
2017-Oct-13 20:00N 35°29' E 139°42'0 0.0
2017-Oct-13 19:30N 35°29' E 139°42'0 0.0
2017-Oct-13 19:00N 35°29' E 139°42'0 0.0
2017-Oct-13 18:30N 35°29' E 139°42'0 0.0
2017-Oct-13 18:00N 35°29' E 139°42'0 0.0
2017-Oct-13 17:15N 35°29' E 139°42'0 0.0
2017-Oct-13 17:00N 35°29' E 139°42'0 0.0
2017-Oct-13 16:27N 35°29' E 139°42'0 0.0
2017-Oct-13 16:00N 35°29' E 139°42'0 0.0
2017-Oct-13 13:57N 35°29' E 139°42'0 0.0
2017-Oct-13 13:24N 35°29' E 139°42'0 0.0
2017-Oct-13 12:27N 35°29' E 139°42'0 0.0
2017-Oct-13 11:57N 35°29' E 139°42'0 0.0
2017-Oct-13 11:27N 35°29' E 139°42'0 0.0
2017-Oct-13 10:48N 35°29' E 139°42'0 0.0
2017-Oct-13 10:30N 35°29' E 139°42'0 0.0
2017-Oct-13 10:00N 35°29' E 139°42'0 0.0
2017-Oct-13 09:15N 35°29' E 139°42'0 0.0
2017-Oct-13 08:33N 35°29' E 139°42'0 0.0
2017-Oct-13 08:06N 35°29' E 139°42'0 0.0
2017-Oct-13 08:00N 35°29' E 139°42'0 0.0
2017-Oct-13 07:27N 35°29' E 139°42'0 0.0
2017-Oct-13 06:59N 35°29' E 139°42'0 0.0
2017-Oct-13 06:29N 35°29' E 139°42'0 0.0
2017-Oct-13 05:59N 35°29' E 139°42'0 0.0
2017-Oct-13 05:29N 35°29' E 139°42'0 0.0
2017-Oct-13 04:59N 35°29' E 139°42'0 0.0
2017-Oct-13 04:29N 35°29' E 139°42'0 0.0
2017-Oct-13 03:59N 35°29' E 139°42'0 0.0
2017-Oct-13 03:29N 35°29' E 139°42'0 0.0
2017-Oct-13 02:59N 35°29' E 139°42'0 0.0
2017-Oct-13 02:26N 35°29' E 139°42'0 0.0
2017-Oct-13 01:59N 35°29' E 139°42'0 0.0
2017-Oct-13 01:29N 35°29' E 139°42'0 0.0
2017-Oct-13 00:53N 35°29' E 139°42'0 0.0
2017-Oct-13 00:29N 35°29' E 139°42'0 0.0
2017-Oct-12 23:59N 35°29' E 139°42'0 0.0
2017-Oct-12 23:08N 35°29' E 139°42'0 0.0
2017-Oct-12 22:59N 35°29' E 139°42'0 0.0
2017-Oct-12 22:23N 35°29' E 139°42'0 0.0
2017-Oct-12 21:26N 35°29' E 139°42'0 0.0
2017-Oct-12 20:05N 35°29' E 139°42'0 0.0
2017-Oct-12 19:59N 35°29' E 139°42'0 0.0
2017-Oct-12 15:11N 35°29' E 139°42'0 0.0
2017-Oct-12 14:44N 35°29' E 139°42'0 0.0
2017-Oct-12 14:14N 35°29' E 139°42'0 0.0
2017-Oct-12 13:59N 35°29' E 139°42'0 0.0
2017-Oct-12 13:29N 35°29' E 139°42'0 0.0
2017-Oct-12 12:59N 35°29' E 139°42'0 0.0
2017-Oct-12 12:29N 35°29' E 139°42'0 0.0
2017-Oct-12 11:53N 35°29' E 139°42'0 0.0
2017-Oct-12 11:29N 35°29' E 139°42'0 0.0
2017-Oct-12 10:56N 35°29' E 139°42'0 0.0
2017-Oct-12 10:26N 35°29' E 139°42'0 0.0
2017-Oct-12 09:53N 35°29' E 139°42'0 0.0
2017-Oct-12 09:29N 35°29' E 139°42'0 0.0
2017-Oct-12 08:56N 35°29' E 139°42'0 0.0
2017-Oct-12 08:26N 35°29' E 139°42'0 0.0
2017-Oct-12 07:59N 35°29' E 139°42'0 0.0
2017-Oct-12 07:29N 35°29' E 139°42'0 0.0
2017-Oct-12 06:56N 35°29' E 139°42'0 0.0
2017-Oct-12 06:29N 35°29' E 139°42'0 0.0
2017-Oct-12 05:59N 35°29' E 139°42'0 0.0
2017-Oct-12 05:29N 35°29' E 139°42'0 0.0
2017-Oct-12 04:59N 35°29' E 139°42'0 0.0
2017-Oct-12 04:29N 35°29' E 139°42'0 0.0
2017-Oct-12 03:59N 35°29' E 139°42'0 0.0
2017-Oct-12 03:29N 35°29' E 139°42'0 0.0
2017-Oct-12 02:59N 35°29' E 139°42'0 0.0
2017-Oct-12 02:30N 35°29' E 139°42'0 0.0
2017-Oct-12 02:00N 35°29' E 139°42'0 0.4
2017-Oct-12 01:30N 35°29' E 139°42'3 6.6
2017-Oct-12 01:00N 35°31' E 139°45'4 1.2
2017-Oct-11 21:52N 35°28' E 139°42'4 0.2
2017-Oct-10 22:18N 35°31' E 139°45'3 7.7
2017-Oct-10 21:51N 35°28' E 139°42'  

Dump ship's entire track history